Time;durP1;ratioP1;P1;durP2;ratioP2;P2;SDS_P1;SDS_P2;PMS_P1;PMS_P2;Temp;Humidity;BMP_temperature;BMP_pressure;BME280_temperature;BME280_humidity;BME280_pressure;Samples;Min_cycle;Max_cycle;Signal;HPM_P1;HPM_P2
2023/08/10 00:00:27;;;;;;;3.55;2.63;;;;;;;;;;5036126;28;20654;-44
2023/08/10 00:03:15;;;;;;;4.22;2.15;;;;;;;;;;5036446;28;20246;-45
2023/08/10 00:05:42;;;;;;;3.05;2.13;;;;;;;;;;5034337;28;20735;-44
2023/08/10 00:08:10;;;;;;;5.07;2.50;;;;;;;;;;5034841;28;20196;-44
2023/08/10 00:10:37;;;;;;;3.67;2.70;;;;;;;;;;5035676;28;20201;-45
2023/08/10 00:13:04;;;;;;;4.22;3.00;;;;;;;;;;5035794;28;20201;-45
2023/08/10 00:15:31;;;;;;;4.82;3.05;;;;;;;;;;5034449;28;20213;-44
2023/08/10 00:17:59;;;;;;;6.45;3.00;;;;;;;;;;5035973;28;20254;-45
2023/08/10 00:20:26;;;;;;;5.15;3.35;;;;;;;;;;5035578;28;20575;-44
2023/08/10 00:22:53;;;;;;;4.88;3.25;;;;;;;;;;5035777;28;20625;-44
2023/08/10 00:25:20;;;;;;;9.15;3.20;;;;;;;;;;5035562;28;20224;-44
2023/08/10 00:27:47;;;;;;;3.80;3.00;;;;;;;;;;5035292;28;20201;-44
2023/08/10 00:30:15;;;;;;;5.93;3.70;;;;;;;;;;5034616;28;20205;-44
2023/08/10 00:32:42;;;;;;;5.47;3.97;;;;;;;;;;5035709;28;20575;-44
2023/08/10 00:35:11;;;;;;;4.97;3.50;;;;;;;;;;5034178;28;20724;-45
2023/08/10 00:37:38;;;;;;;6.57;3.50;;;;;;;;;;5034266;28;20204;-44
2023/08/10 00:40:09;;;;;;;6.30;4.32;;;;;;;;;;5034030;28;20212;-44
2023/08/10 00:42:36;;;;;;;8.00;4.47;;;;;;;;;;5035124;28;20193;-44
2023/08/10 00:45:03;;;;;;;6.80;4.10;;;;;;;;;;5034255;28;20228;-44
2023/08/10 00:47:31;;;;;;;9.35;5.18;;;;;;;;;;5034228;28;20204;-45
2023/08/10 00:49:58;;;;;;;10.60;5.30;;;;;;;;;;5035256;28;20208;-44
2023/08/10 00:52:25;;;;;;;8.77;5.03;;;;;;;;;;5033905;28;20210;-44
2023/08/10 00:54:52;;;;;;;7.75;4.82;;;;;;;;;;5035053;28;20228;-43
2023/08/10 00:57:20;;;;;;;10.05;5.07;;;;;;;;;;5034062;28;20217;-44
2023/08/10 00:59:47;;;;;;;9.52;5.97;;;;;;;;;;5035264;28;20207;-44
2023/08/10 01:02:15;;;;;;;9.82;5.50;;;;;;;;;;5033737;28;20208;-44
2023/08/10 01:04:45;;;;;;;8.30;5.95;;;;;;;;;;5033551;28;20579;-43
2023/08/10 01:07:47;;;;;;;10.27;5.53;;;;;;;;;;5034565;28;20239;-44
2023/08/10 01:10:33;;;;;;;9.10;6.00;;;;;;;;;;4992850;28;20289;-44
2023/08/10 01:13:07;;;;;;;11.20;6.55;;;;;;;;;;4977076;28;20206;-44
2023/08/10 01:15:45;;;;;;;9.25;5.93;;;;;;;;;;4992850;28;20202;-45
2023/08/10 01:18:18;;;;;;;12.50;6.35;;;;;;;;;;4976587;28;20201;-44
2023/08/10 01:20:47;;;;;;;10.00;6.57;;;;;;;;;;4993217;28;20198;-44
2023/08/10 01:23:34;;;;;;;11.88;5.35;;;;;;;;;;4977117;28;20221;-44
2023/08/10 01:26:02;;;;;;;11.10;4.95;;;;;;;;;;4992903;28;20236;-46
2023/08/10 01:28:34;;;;;;;8.45;5.75;;;;;;;;;;4992877;28;20221;-44
2023/08/10 01:31:01;;;;;;;9.98;6.70;;;;;;;;;;4986673;28;20225;-45
2023/08/10 01:33:29;;;;;;;8.82;5.90;;;;;;;;;;4981274;28;20210;-45
2023/08/10 01:35:57;;;;;;;9.68;5.70;;;;;;;;;;4989545;28;20211;-44
2023/08/10 01:38:24;;;;;;;8.18;4.90;;;;;;;;;;4973194;28;20203;-44
2023/08/10 01:40:52;;;;;;;11.65;5.38;;;;;;;;;;4957233;28;20546;-45
2023/08/10 01:43:19;;;;;;;7.50;4.65;;;;;;;;;;4973296;28;20202;-44
2023/08/10 01:45:52;;;;;;;8.38;4.63;;;;;;;;;;4991945;28;20229;-44
2023/08/10 01:48:23;;;;;;;9.10;5.22;;;;;;;;;;5014230;28;20674;-45
2023/08/10 01:50:52;;;;;;;12.02;6.28;;;;;;;;;;5046128;28;20186;-44
2023/08/10 01:53:39;;;;;;;11.48;5.85;;;;;;;;;;5045725;28;20224;-45
2023/08/10 01:56:06;;;;;;;7.97;5.85;;;;;;;;;;4997260;28;20197;-44
2023/08/10 01:58:33;;;;;;;10.45;5.43;;;;;;;;;;5013078;28;20284;-44
2023/08/10 02:01:01;;;;;;;11.27;5.68;;;;;;;;;;5014321;28;20201;-44
2023/08/10 02:03:28;;;;;;;12.55;5.65;;;;;;;;;;5014307;28;20208;-44
2023/08/10 02:05:55;;;;;;;14.57;7.05;;;;;;;;;;5012495;28;20245;-44
2023/08/10 02:08:23;;;;;;;14.15;6.88;;;;;;;;;;5013965;28;20554;-44
2023/08/10 02:10:50;;;;;;;13.35;6.95;;;;;;;;;;5014181;28;20201;-44
2023/08/10 02:13:17;;;;;;;15.02;7.45;;;;;;;;;;5013877;28;20201;-44
2023/08/10 02:15:44;;;;;;;14.60;7.93;;;;;;;;;;5045679;28;20205;-44
2023/08/10 02:18:15;;;;;;;16.35;8.18;;;;;;;;;;5013870;28;20259;-45
2023/08/10 02:20:42;;;;;;;13.45;7.03;;;;;;;;;;5013795;28;20721;-44
2023/08/10 02:23:09;;;;;;;9.95;5.55;;;;;;;;;;5045415;28;20575;-44
2023/08/10 02:25:36;;;;;;;10.25;5.38;;;;;;;;;;5012566;28;20228;-44
2023/08/10 02:28:03;;;;;;;12.85;5.72;;;;;;;;;;5012355;28;20727;-44
2023/08/10 02:30:30;;;;;;;10.55;5.65;;;;;;;;;;5013640;28;20283;-44
2023/08/10 02:32:58;;;;;;;10.15;4.68;;;;;;;;;;5013464;28;20209;-44
2023/08/10 02:35:25;;;;;;;9.98;5.40;;;;;;;;;;5013649;28;20201;-44
2023/08/10 02:37:52;;;;;;;10.38;5.28;;;;;;;;;;5013590;28;20209;-44
2023/08/10 02:40:21;;;;;;;11.27;5.40;;;;;;;;;;5013679;28;20272;-44
2023/08/10 02:42:48;;;;;;;10.70;4.90;;;;;;;;;;5013309;28;20255;-43
2023/08/10 02:45:15;;;;;;;13.25;5.80;;;;;;;;;;5011912;28;20201;-46
2023/08/10 02:47:43;;;;;;;20.63;7.65;;;;;;;;;;5013191;28;20581;-45
2023/08/10 02:50:11;;;;;;;16.52;6.85;;;;;;;;;;5013027;28;20638;-44
2023/08/10 02:52:40;;;;;;;23.67;7.20;;;;;;;;;;4996027;28;20580;-44
2023/08/10 02:55:07;;;;;;;20.83;8.25;;;;;;;;;;5013410;28;20590;-44
2023/08/10 02:57:35;;;;;;;20.88;5.78;;;;;;;;;;5011983;28;20205;-44
2023/08/10 03:00:06;;;;;;;12.93;5.90;;;;;;;;;;5012261;28;20782;-44
2023/08/10 03:02:34;;;;;;;16.52;7.13;;;;;;;;;;5013043;28;20284;-45
2023/08/10 03:05:05;;;;;;;15.75;7.00;;;;;;;;;;5011822;28;20674;-44
2023/08/10 03:07:33;;;;;;;12.35;6.05;;;;;;;;;;5011936;28;20702;-44
2023/08/10 03:10:03;;;;;;;14.02;6.90;;;;;;;;;;5011859;28;20546;-44
2023/08/10 03:12:33;;;;;;;15.45;6.78;;;;;;;;;;5012052;28;20201;-44
2023/08/10 03:15:00;;;;;;;11.68;6.13;;;;;;;;;;5012017;28;20209;-44
2023/08/10 03:17:27;;;;;;;13.52;6.60;;;;;;;;;;5012046;28;20220;-44
2023/08/10 03:19:55;;;;;;;16.17;6.50;;;;;;;;;;5010696;28;20233;-44
2023/08/10 03:22:25;;;;;;;14.52;6.65;;;;;;;;;;4994567;28;20209;-45
2023/08/10 03:24:53;;;;;;;15.88;7.35;;;;;;;;;;5010712;28;20213;-44
2023/08/10 03:27:21;;;;;;;16.98;7.65;;;;;;;;;;4997702;28;20225;-44
2023/08/10 03:29:48;;;;;;;18.73;7.53;;;;;;;;;;4998147;28;20213;-45
2023/08/10 03:32:15;;;;;;;15.82;7.85;;;;;;;;;;4998200;28;20212;-44
2023/08/10 03:34:42;;;;;;;16.20;8.15;;;;;;;;;;5014448;28;20640;-45
2023/08/10 03:37:11;;;;;;;18.35;7.88;;;;;;;;;;5014635;28;20579;-44
2023/08/10 03:39:39;;;;;;;15.00;8.38;;;;;;;;;;5014524;28;20201;-44
2023/08/10 03:42:06;;;;;;;19.25;8.80;;;;;;;;;;5014602;28;20206;-44
2023/08/10 03:44:34;;;;;;;19.95;9.20;;;;;;;;;;4998147;28;20295;-44
2023/08/10 03:47:01;;;;;;;18.35;10.30;;;;;;;;;;5014442;28;20233;-44
2023/08/10 03:49:28;;;;;;;19.83;9.63;;;;;;;;;;4998087;28;20201;-44
2023/08/10 03:51:55;;;;;;;17.60;9.63;;;;;;;;;;5016082;28;20206;-44
2023/08/10 03:54:22;;;;;;;18.20;10.20;;;;;;;;;;5016376;28;20205;-44
2023/08/10 03:56:50;;;;;;;18.15;9.82;;;;;;;;;;5016682;28;20574;-44
2023/08/10 03:59:17;;;;;;;18.58;9.77;;;;;;;;;;5015155;28;20197;-44
2023/08/10 04:01:44;;;;;;;16.75;9.82;;;;;;;;;;5015044;28;20688;-44
2023/08/10 04:04:11;;;;;;;18.80;9.68;;;;;;;;;;5021829;28;20192;-44
2023/08/10 04:06:39;;;;;;;17.38;9.68;;;;;;;;;;5032871;28;20232;-44
2023/08/10 04:09:06;;;;;;;17.83;9.05;;;;;;;;;;5011627;28;20213;-44
2023/08/10 04:11:34;;;;;;;15.80;8.95;;;;;;;;;;5012129;28;20209;-44
2023/08/10 04:14:01;;;;;;;19.95;9.55;;;;;;;;;;5012415;28;20212;-44
2023/08/10 04:16:28;;;;;;;17.23;9.73;;;;;;;;;;5013806;28;20248;-44
2023/08/10 04:18:55;;;;;;;16.15;9.27;;;;;;;;;;5014069;28;20201;-44
2023/08/10 04:21:23;;;;;;;16.45;9.68;;;;;;;;;;4997362;28;20209;-44
2023/08/10 04:23:50;;;;;;;19.13;8.63;;;;;;;;;;5013693;28;20760;-44
2023/08/10 04:26:18;;;;;;;17.38;9.15;;;;;;;;;;5013747;28;20225;-44
2023/08/10 04:28:45;;;;;;;20.80;9.18;;;;;;;;;;5013694;28;20201;-45
2023/08/10 04:31:12;;;;;;;16.75;10.05;;;;;;;;;;5011979;28;20198;-45
2023/08/10 04:33:40;;;;;;;15.43;10.02;;;;;;;;;;5012761;28;20216;-44
2023/08/10 04:36:07;;;;;;;16.95;9.73;;;;;;;;;;5012885;28;20205;-45
2023/08/10 04:38:35;;;;;;;16.10;10.07;;;;;;;;;;5012979;28;20251;-44
2023/08/10 04:41:02;;;;;;;18.45;11.02;;;;;;;;;;5013001;28;20682;-44
2023/08/10 04:43:29;;;;;;;15.70;10.45;;;;;;;;;;5012954;28;20720;-44
2023/08/10 04:45:57;;;;;;;15.25;10.00;;;;;;;;;;5014591;28;20568;-44
2023/08/10 04:48:24;;;;;;;20.02;10.98;;;;;;;;;;5034679;28;20207;-47
2023/08/10 04:50:51;;;;;;;16.92;10.43;;;;;;;;;;5034622;28;20193;-44
2023/08/10 04:53:18;;;;;;;16.10;10.15;;;;;;;;;;5034761;28;20209;-44
2023/08/10 04:55:46;;;;;;;14.85;10.05;;;;;;;;;;5034594;28;20215;-44
2023/08/10 04:58:13;;;;;;;13.63;9.55;;;;;;;;;;5034522;28;20201;-44
2023/08/10 05:00:40;;;;;;;18.77;10.00;;;;;;;;;;5034771;28;20208;-44
2023/08/10 05:03:07;;;;;;;14.23;9.50;;;;;;;;;;5034708;28;20200;-43
2023/08/10 05:05:38;;;;;;;15.23;9.10;;;;;;;;;;5034097;28;20251;-45
2023/08/10 05:08:05;;;;;;;17.55;9.77;;;;;;;;;;5034675;28;20215;-44
2023/08/10 05:10:32;;;;;;;16.20;10.73;;;;;;;;;;5034091;28;20251;-45
2023/08/10 05:12:59;;;;;;;15.45;10.52;;;;;;;;;;5034549;28;20201;-44
2023/08/10 05:15:28;;;;;;;16.77;10.80;;;;;;;;;;5034393;28;20199;-45
2023/08/10 05:17:55;;;;;;;16.55;10.65;;;;;;;;;;5031623;28;20227;-44
2023/08/10 05:20:23;;;;;;;15.50;10.57;;;;;;;;;;5034256;28;20251;-44
2023/08/10 05:22:50;;;;;;;18.45;10.48;;;;;;;;;;5034051;28;20207;-44
2023/08/10 05:25:17;;;;;;;13.77;9.90;;;;;;;;;;5027331;28;20201;-46
2023/08/10 05:27:45;;;;;;;16.17;11.13;;;;;;;;;;5033907;28;20224;-47
2023/08/10 05:30:13;;;;;;;15.80;10.63;;;;;;;;;;5034116;28;20193;-48
2023/08/10 05:32:43;;;;;;;15.15;10.05;;;;;;;;;;5034242;28;20193;-45
2023/08/10 05:35:12;;;;;;;15.23;10.20;;;;;;;;;;5033756;28;20185;-49
2023/08/10 05:37:39;;;;;;;14.65;9.32;;;;;;;;;;5033340;28;20650;-44
2023/08/10 05:40:09;;;;;;;14.13;9.82;;;;;;;;;;5028569;28;20208;-44
2023/08/10 05:42:38;;;;;;;14.05;9.23;;;;;;;;;;5033953;28;20221;-45
2023/08/10 05:45:06;;;;;;;11.77;8.88;;;;;;;;;;5033117;28;20254;-44
2023/08/10 05:47:34;;;;;;;15.32;8.13;;;;;;;;;;5033249;28;20751;-45
2023/08/10 05:50:03;;;;;;;14.35;8.63;;;;;;;;;;5032753;28;20236;-44
2023/08/10 05:52:30;;;;;;;12.18;8.70;;;;;;;;;;5033011;28;20235;-45
2023/08/10 05:54:57;;;;;;;12.13;9.02;;;;;;;;;;5033007;28;20220;-46
2023/08/10 05:57:24;;;;;;;14.13;9.52;;;;;;;;;;5032992;28;20319;-46
2023/08/10 05:59:52;;;;;;;13.98;9.18;;;;;;;;;;5026370;28;20710;-45
2023/08/10 06:02:19;;;;;;;12.52;8.77;;;;;;;;;;5022985;28;20228;-45
2023/08/10 06:04:47;;;;;;;12.38;8.52;;;;;;;;;;5029912;28;20232;-44
2023/08/10 06:07:13;;;;;;;13.35;8.38;;;;;;;;;;5032900;28;20274;-44
2023/08/10 06:09:41;;;;;;;11.48;7.97;;;;;;;;;;5032841;28;20232;-42
2023/08/10 06:12:08;;;;;;;13.93;6.80;;;;;;;;;;5032680;28;20221;-44
2023/08/10 06:14:36;;;;;;;8.73;6.90;;;;;;;;;;5032395;28;20243;-44
2023/08/10 06:17:07;;;;;;;9.48;7.05;;;;;;;;;;5032999;28;20311;-46
2023/08/10 06:19:34;;;;;;;11.10;7.13;;;;;;;;;;5033433;28;20217;-44
2023/08/10 06:22:02;;;;;;;9.07;6.28;;;;;;;;;;5031383;28;20228;-44
2023/08/10 06:24:31;;;;;;;9.63;6.85;;;;;;;;;;5031780;28;20217;-45
2023/08/10 06:26:59;;;;;;;11.48;7.57;;;;;;;;;;5032391;28;20252;-45
2023/08/10 06:29:26;;;;;;;10.20;7.63;;;;;;;;;;5032178;28;20217;-44
2023/08/10 06:31:54;;;;;;;10.20;7.35;;;;;;;;;;5032272;28;20213;-45
2023/08/10 06:34:22;;;;;;;10.52;6.78;;;;;;;;;;5031821;28;20266;-47
2023/08/10 06:36:49;;;;;;;9.02;6.65;;;;;;;;;;5030801;28;20248;-46
2023/08/10 06:39:16;;;;;;;9.10;7.07;;;;;;;;;;5030067;28;20216;-46
2023/08/10 06:41:43;;;;;;;9.70;6.53;;;;;;;;;;5031902;28;20226;-45
2023/08/10 06:44:11;;;;;;;10.52;6.78;;;;;;;;;;5028818;28;20282;-44
2023/08/10 06:46:38;;;;;;;10.30;7.35;;;;;;;;;;5032629;28;20225;-44
2023/08/10 06:49:06;;;;;;;9.77;6.43;;;;;;;;;;5032496;28;20233;-44
2023/08/10 06:51:33;;;;;;;9.43;6.88;;;;;;;;;;5032306;28;20271;-44
2023/08/10 06:54:01;;;;;;;9.95;7.05;;;;;;;;;;5032646;28;20228;-44
2023/08/10 06:56:29;;;;;;;9.52;6.90;;;;;;;;;;5031601;28;20220;-46
2023/08/10 06:58:56;;;;;;;8.63;5.90;;;;;;;;;;5032615;28;20230;-45
2023/08/10 07:01:30;;;;;;;11.38;5.90;;;;;;;;;;5027226;28;20690;-47
2023/08/10 07:03:59;;;;;;;7.88;5.88;;;;;;;;;;5028289;28;20631;-44
2023/08/10 07:06:28;;;;;;;9.77;6.45;;;;;;;;;;5035586;28;20323;-44
2023/08/10 07:08:56;;;;;;;10.05;6.03;;;;;;;;;;5036274;28;20220;-44
2023/08/10 07:11:23;;;;;;;10.52;6.18;;;;;;;;;;5035605;28;20303;-44
2023/08/10 07:13:50;;;;;;;7.85;5.60;;;;;;;;;;5036355;28;20216;-44
2023/08/10 07:16:17;;;;;;;12.15;4.85;;;;;;;;;;5036207;28;20225;-44
2023/08/10 07:18:45;;;;;;;8.10;5.40;;;;;;;;;;5036429;28;20236;-44
2023/08/10 07:21:12;;;;;;;8.25;4.82;;;;;;;;;;5036075;28;20721;-44
2023/08/10 07:23:39;;;;;;;7.75;4.65;;;;;;;;;;5034908;28;20649;-44
2023/08/10 07:26:06;;;;;;;6.55;4.68;;;;;;;;;;5035995;28;20224;-44
2023/08/10 07:28:33;;;;;;;9.25;4.72;;;;;;;;;;5033328;28;20282;-44
2023/08/10 07:31:00;;;;;;;7.78;4.63;;;;;;;;;;5036635;28;20736;-44
2023/08/10 07:33:28;;;;;;;7.10;5.07;;;;;;;;;;5036909;28;20219;-44
2023/08/10 07:35:55;;;;;;;5.75;4.88;;;;;;;;;;5036582;28;20208;-44
2023/08/10 07:38:23;;;;;;;6.32;4.80;;;;;;;;;;5036477;28;20553;-44
2023/08/10 07:40:50;;;;;;;9.05;5.57;;;;;;;;;;5035264;28;20287;-44
2023/08/10 07:43:17;;;;;;;6.55;5.20;;;;;;;;;;5031615;28;20201;-46
2023/08/10 07:45:44;;;;;;;6.85;5.00;;;;;;;;;;5030538;28;20220;-47
2023/08/10 07:48:12;;;;;;;7.85;5.13;;;;;;;;;;5035855;28;20224;-46
2023/08/10 07:50:39;;;;;;;8.02;5.28;;;;;;;;;;5036025;28;20192;-44
2023/08/10 07:53:06;;;;;;;7.15;5.05;;;;;;;;;;5035902;28;20258;-46
2023/08/10 07:55:33;;;;;;;7.13;4.93;;;;;;;;;;5034622;28;20664;-46
2023/08/10 07:58:00;;;;;;;6.65;4.90;;;;;;;;;;5035210;28;20247;-47
2023/08/10 08:00:28;;;;;;;8.20;5.30;;;;;;;;;;5029842;28;20263;-47
2023/08/10 08:02:55;;;;;;;6.07;4.68;;;;;;;;;;5034624;28;20225;-46
2023/08/10 08:05:22;;;;;;;9.18;5.10;;;;;;;;;;5034036;28;20696;-46
2023/08/10 08:07:49;;;;;;;7.57;4.80;;;;;;;;;;5034297;28;20576;-46
2023/08/10 08:10:16;;;;;;;7.78;4.70;;;;;;;;;;5034388;28;20225;-47
2023/08/10 08:12:44;;;;;;;5.90;4.95;;;;;;;;;;5033769;28;20228;-45
2023/08/10 08:15:11;;;;;;;8.85;4.90;;;;;;;;;;5034093;28;20569;-48
2023/08/10 08:18:16;;;;;;;9.02;5.00;;;;;;;;;;5035149;28;20581;-46
2023/08/10 08:20:43;;;;;;;6.88;4.90;;;;;;;;;;5034534;28;20278;-48
2023/08/10 08:23:10;;;;;;;5.85;4.70;;;;;;;;;;5034372;28;20233;-47
2023/08/10 08:25:37;;;;;;;7.30;5.15;;;;;;;;;;5034178;28;20689;-46
2023/08/10 08:28:06;;;;;;;5.47;4.53;;;;;;;;;;5034626;28;20241;-47
2023/08/10 08:30:33;;;;;;;6.53;4.82;;;;;;;;;;5034381;28;20252;-47
2023/08/10 08:33:01;;;;;;;5.75;4.72;;;;;;;;;;5033987;28;20213;-48
2023/08/10 08:35:29;;;;;;;7.07;4.68;;;;;;;;;;5034251;28;20217;-48
2023/08/10 08:37:57;;;;;;;8.35;5.22;;;;;;;;;;5034313;28;20225;-47
2023/08/10 08:40:23;;;;;;;5.25;4.47;;;;;;;;;;5034577;28;20228;-46
2023/08/10 08:42:52;;;;;;;6.57;5.07;;;;;;;;;;5033835;28;20611;-47
2023/08/10 08:45:19;;;;;;;6.13;4.53;;;;;;;;;;5032090;28;20599;-47
2023/08/10 08:47:46;;;;;;;5.97;4.97;;;;;;;;;;5033560;28;20736;-46
2023/08/10 08:50:14;;;;;;;7.13;5.10;;;;;;;;;;5033326;28;20225;-48
2023/08/10 08:52:43;;;;;;;5.55;4.45;;;;;;;;;;5032273;28;20228;-50
2023/08/10 08:55:11;;;;;;;6.95;5.13;;;;;;;;;;5033603;28;20216;-46
2023/08/10 08:57:39;;;;;;;7.53;4.68;;;;;;;;;;5033635;28;20615;-47
2023/08/10 09:00:07;;;;;;;7.30;4.82;;;;;;;;;;5032910;28;20577;-47
2023/08/10 09:02:35;;;;;;;5.60;4.63;;;;;;;;;;5033641;28;20624;-48
2023/08/10 09:05:02;;;;;;;6.30;4.97;;;;;;;;;;5033209;28;20239;-46
2023/08/10 09:07:30;;;;;;;6.05;4.57;;;;;;;;;;5033718;28;20240;-47
2023/08/10 09:09:57;;;;;;;5.82;4.88;;;;;;;;;;5033478;28;20217;-47
2023/08/10 09:12:27;;;;;;;7.20;4.90;;;;;;;;;;5033853;28;20204;-50
2023/08/10 09:15:02;;;;;;;7.35;4.78;;;;;;;;;;5034056;28;20576;-47
2023/08/10 09:17:31;;;;;;;6.28;4.90;;;;;;;;;;5014351;28;20205;-46
2023/08/10 09:19:59;;;;;;;10.85;5.80;;;;;;;;;;5028086;28;20243;-47
2023/08/10 09:22:35;;;;;;;6.93;4.88;;;;;;;;;;5028537;28;20224;-47
2023/08/10 09:25:04;;;;;;;6.20;4.97;;;;;;;;;;5032451;28;20231;-46
2023/08/10 09:27:31;;;;;;;6.45;4.75;;;;;;;;;;5021004;28;20244;-47
2023/08/10 09:30:01;;;;;;;7.35;5.00;;;;;;;;;;5031999;28;20220;-47
2023/08/10 09:32:28;;;;;;;6.28;4.82;;;;;;;;;;5033131;28;20215;-47
2023/08/10 09:34:56;;;;;;;7.30;4.78;;;;;;;;;;5031608;28;20744;-48
2023/08/10 09:37:24;;;;;;;7.03;4.55;;;;;;;;;;5032105;28;20286;-48
2023/08/10 09:40:06;;;;;;;6.63;4.57;;;;;;;;;;5025327;28;20224;-47
2023/08/10 09:42:34;;;;;;;6.85;4.75;;;;;;;;;;5031698;28;20232;-46
2023/08/10 09:45:06;;;;;;;6.95;4.15;;;;;;;;;;5033058;28;20236;-46
2023/08/10 09:47:36;;;;;;;8.35;5.15;;;;;;;;;;5032490;28;20228;-49
2023/08/10 09:50:05;;;;;;;5.45;4.40;;;;;;;;;;5032857;28;20221;-46
2023/08/10 09:52:34;;;;;;;6.25;4.65;;;;;;;;;;5032471;28;20354;-47
2023/08/10 09:55:02;;;;;;;7.30;5.20;;;;;;;;;;5032549;28;20701;-47
2023/08/10 09:57:30;;;;;;;6.10;4.18;;;;;;;;;;5031398;28;20252;-47
2023/08/10 09:59:57;;;;;;;6.30;4.30;;;;;;;;;;5031745;28;20647;-46
2023/08/10 10:02:25;;;;;;;9.50;4.85;;;;;;;;;;5031391;28;20225;-46
2023/08/10 10:04:53;;;;;;;6.30;4.55;;;;;;;;;;5032220;28;20256;-48
2023/08/10 10:07:27;;;;;;;6.05;4.50;;;;;;;;;;5030621;28;20236;-47
2023/08/10 10:09:58;;;;;;;7.72;4.20;;;;;;;;;;5032785;28;20231;-47
2023/08/10 10:12:26;;;;;;;7.95;4.50;;;;;;;;;;5024399;28;20274;-47
2023/08/10 10:14:53;;;;;;;9.55;4.32;;;;;;;;;;5029868;28;20234;-47
2023/08/10 10:17:21;;;;;;;5.45;3.70;;;;;;;;;;5032434;28;20562;-47
2023/08/10 10:19:50;;;;;;;4.70;3.50;;;;;;;;;;5027207;28;20265;-47
2023/08/10 10:22:19;;;;;;;5.03;3.70;;;;;;;;;;5031039;28;20241;-48
2023/08/10 10:24:46;;;;;;;4.57;2.95;;;;;;;;;;5028651;28;20686;-49
2023/08/10 10:27:14;;;;;;;5.55;3.17;;;;;;;;;;5030614;28;20231;-48
2023/08/10 10:29:45;;;;;;;5.75;3.92;;;;;;;;;;5032075;28;20220;-47
2023/08/10 10:32:14;;;;;;;6.13;3.67;;;;;;;;;;5032371;28;20213;-46
2023/08/10 10:34:42;;;;;;;7.05;3.38;;;;;;;;;;5031361;28;20304;-47
2023/08/10 10:37:15;;;;;;;3.65;3.30;;;;;;;;;;5031776;28;20227;-47
2023/08/10 10:39:47;;;;;;;5.65;3.47;;;;;;;;;;5032264;28;20270;-47
2023/08/10 10:42:19;;;;;;;4.95;3.80;;;;;;;;;;5025310;28;20228;-47
2023/08/10 10:45:14;;;;;;;4.32;3.65;;;;;;;;;;5031194;28;20233;-46
2023/08/10 10:47:47;;;;;;;4.82;3.30;;;;;;;;;;5025143;28;20256;-46
2023/08/10 10:50:17;;;;;;;5.05;3.10;;;;;;;;;;5023416;28;20231;-46
2023/08/10 10:53:01;;;;;;;6.45;3.97;;;;;;;;;;5031753;28;20224;-46
2023/08/10 10:55:39;;;;;;;5.10;3.58;;;;;;;;;;5031634;28;20228;-46
2023/08/10 10:58:08;;;;;;;4.72;3.40;;;;;;;;;;5032154;28;20233;-46
2023/08/10 11:00:36;;;;;;;4.63;3.08;;;;;;;;;;5031567;28;20232;-47
2023/08/10 11:03:06;;;;;;;4.32;3.50;;;;;;;;;;5031733;28;20697;-46
2023/08/10 11:05:33;;;;;;;4.00;3.35;;;;;;;;;;5031359;28;20232;-46
2023/08/10 11:08:05;;;;;;;4.15;3.20;;;;;;;;;;5032000;28;20262;-47
2023/08/10 11:10:35;;;;;;;4.18;3.30;;;;;;;;;;5032258;28;20291;-46
2023/08/10 11:13:04;;;;;;;5.22;3.40;;;;;;;;;;5031494;28;20224;-46
2023/08/10 11:15:32;;;;;;;3.83;2.72;;;;;;;;;;5031316;28;20307;-46
2023/08/10 11:18:00;;;;;;;5.43;3.33;;;;;;;;;;5031404;28;20701;-47
2023/08/10 11:20:27;;;;;;;6.30;3.20;;;;;;;;;;5031032;28;20232;-45
2023/08/10 11:22:54;;;;;;;3.97;3.20;;;;;;;;;;5031172;28;20228;-47
2023/08/10 11:25:29;;;;;;;4.20;3.00;;;;;;;;;;5031082;28;20270;-46
2023/08/10 11:27:59;;;;;;;4.60;3.05;;;;;;;;;;5031422;28;20712;-47
2023/08/10 11:30:26;;;;;;;4.72;3.30;;;;;;;;;;5031672;28;20232;-46
2023/08/10 11:32:57;;;;;;;3.75;2.80;;;;;;;;;;5031511;28;20225;-46
2023/08/10 11:35:25;;;;;;;6.13;3.20;;;;;;;;;;5030893;28;20240;-48
2023/08/10 11:37:53;;;;;;;4.32;3.50;;;;;;;;;;5031214;28;20780;-48
2023/08/10 11:40:22;;;;;;;3.70;3.08;;;;;;;;;;5031834;28;20222;-46
2023/08/10 11:43:03;;;;;;;4.38;3.15;;;;;;;;;;5031679;28;20232;-46
2023/08/10 11:45:30;;;;;;;4.45;3.30;;;;;;;;;;5031873;28;20213;-46
2023/08/10 11:47:58;;;;;;;6.22;2.95;;;;;;;;;;5034561;28;20240;-46
2023/08/10 11:50:31;;;;;;;3.67;3.00;;;;;;;;;;5034503;28;20308;-46
2023/08/10 11:53:11;;;;;;;5.22;3.38;;;;;;;;;;5026991;28;20228;-46
2023/08/10 11:55:49;;;;;;;4.03;3.20;;;;;;;;;;5033230;28;20250;-45
2023/08/10 11:58:18;;;;;;;5.35;3.25;;;;;;;;;;5024270;28;20228;-46
2023/08/10 12:00:53;;;;;;;6.35;2.90;;;;;;;;;;5034398;28;20685;-46
2023/08/10 12:03:21;;;;;;;3.55;2.78;;;;;;;;;;5033785;28;20220;-45
2023/08/10 12:05:54;;;;;;;3.58;2.60;;;;;;;;;;5033930;28;20237;-46
2023/08/10 12:08:29;;;;;;;3.58;2.80;;;;;;;;;;5034656;28;20233;-45
2023/08/10 12:11:06;;;;;;;3.75;2.50;;;;;;;;;;5034977;28;20216;-45
2023/08/10 12:13:45;;;;;;;3.78;2.45;;;;;;;;;;5033108;28;20227;-46
2023/08/10 12:16:13;;;;;;;4.28;2.47;;;;;;;;;;5034615;28;20217;-46
2023/08/10 12:18:41;;;;;;;2.83;2.42;;;;;;;;;;5034050;28;20228;-46
2023/08/10 12:21:08;;;;;;;4.07;2.67;;;;;;;;;;5034965;28;20229;-46
2023/08/10 12:23:35;;;;;;;3.75;2.88;;;;;;;;;;5034596;28;20274;-46
2023/08/10 12:26:02;;;;;;;5.65;3.10;;;;;;;;;;5034221;28;20229;-46
2023/08/10 12:28:30;;;;;;;3.35;2.80;;;;;;;;;;5034871;28;20236;-48
2023/08/10 12:30:57;;;;;;;4.32;2.60;;;;;;;;;;5034560;28;20302;-46
2023/08/10 12:33:24;;;;;;;2.88;2.60;;;;;;;;;;5034400;28;20220;-48
2023/08/10 12:35:52;;;;;;;4.07;2.67;;;;;;;;;;5033620;28;20275;-47
2023/08/10 12:38:20;;;;;;;4.25;2.97;;;;;;;;;;5034285;28;20231;-47
2023/08/10 12:40:47;;;;;;;6.05;3.20;;;;;;;;;;5033931;28;20312;-47
2023/08/10 12:43:15;;;;;;;5.32;2.65;;;;;;;;;;5034492;28;20279;-47
2023/08/10 12:45:42;;;;;;;3.92;2.42;;;;;;;;;;5032599;28;20715;-46
2023/08/10 12:48:09;;;;;;;5.82;3.00;;;;;;;;;;5033134;28;20286;-46
2023/08/10 12:50:36;;;;;;;4.88;2.92;;;;;;;;;;5031943;28;20217;-47
2023/08/10 12:53:03;;;;;;;4.93;3.65;;;;;;;;;;5034390;28;20556;-47
2023/08/10 12:55:32;;;;;;;4.03;3.42;;;;;;;;;;5032409;28;20220;-47
2023/08/10 12:57:59;;;;;;;3.75;3.33;;;;;;;;;;5033931;28;20232;-47
2023/08/10 13:00:26;;;;;;;3.15;2.70;;;;;;;;;;5033824;28;20596;-47
2023/08/10 13:02:54;;;;;;;3.50;2.63;;;;;;;;;;5033844;28;20236;-47
2023/08/10 13:05:21;;;;;;;5.97;3.28;;;;;;;;;;5032926;28;20223;-47
2023/08/10 13:07:48;;;;;;;2.22;2.00;;;;;;;;;;5033665;28;20563;-47
2023/08/10 13:10:15;;;;;;;3.20;2.13;;;;;;;;;;5033358;28;20231;-48
2023/08/10 13:12:43;;;;;;;2.47;2.28;;;;;;;;;;5033029;28;20239;-49
2023/08/10 13:15:11;;;;;;;2.67;2.03;;;;;;;;;;5032941;28;20227;-47
2023/08/10 13:17:38;;;;;;;3.42;2.78;;;;;;;;;;5033615;28;20225;-48
2023/08/10 13:20:07;;;;;;;6.20;2.60;;;;;;;;;;5033178;28;20223;-47
2023/08/10 13:22:37;;;;;;;2.42;2.20;;;;;;;;;;5033521;28;20771;-47
2023/08/10 13:25:05;;;;;;;5.00;2.90;;;;;;;;;;5032556;28;20256;-48
2023/08/10 13:27:33;;;;;;;3.10;2.60;;;;;;;;;;5033054;28;20225;-47
2023/08/10 13:30:01;;;;;;;2.80;2.30;;;;;;;;;;5033227;28;20248;-49
2023/08/10 13:32:28;;;;;;;2.78;2.20;;;;;;;;;;5033408;28;20231;-47
2023/08/10 13:34:56;;;;;;;3.53;2.53;;;;;;;;;;5031200;28;20312;-47
2023/08/10 13:37:23;;;;;;;3.75;2.13;;;;;;;;;;5033223;28;20279;-47
2023/08/10 13:39:50;;;;;;;2.03;1.55;;;;;;;;;;5032199;28;20673;-44
2023/08/10 13:42:17;;;;;;;2.90;2.00;;;;;;;;;;5033681;28;20220;-44
2023/08/10 13:44:45;;;;;;;3.15;2.33;;;;;;;;;;5033487;28;20239;-44
2023/08/10 13:47:12;;;;;;;2.17;1.92;;;;;;;;;;5033720;28;20579;-44
2023/08/10 13:49:39;;;;;;;3.95;1.98;;;;;;;;;;5033328;28;20232;-43
2023/08/10 13:52:22;;;;;;;2.50;2.25;;;;;;;;;;5033775;28;20236;-44
2023/08/10 13:54:49;;;;;;;5.35;1.95;;;;;;;;;;5033446;28;20245;-44
2023/08/10 13:57:17;;;;;;;3.47;2.15;;;;;;;;;;5033447;28;20225;-44
2023/08/10 13:59:46;;;;;;;2.28;1.77;;;;;;;;;;5033250;28;20582;-43
2023/08/10 14:02:14;;;;;;;3.83;2.53;;;;;;;;;;5033294;28;20229;-43
2023/08/10 14:04:42;;;;;;;3.67;2.40;;;;;;;;;;5032759;28;20312;-44
2023/08/10 14:07:09;;;;;;;4.55;2.30;;;;;;;;;;5033221;28;20244;-44
2023/08/10 14:09:36;;;;;;;4.40;2.40;;;;;;;;;;5032066;28;20232;-45
2023/08/10 14:12:04;;;;;;;3.90;2.00;;;;;;;;;;5031542;28;20224;-44
2023/08/10 14:14:32;;;;;;;3.70;1.95;;;;;;;;;;5033419;28;20224;-44
2023/08/10 14:17:00;;;;;;;2.55;2.22;;;;;;;;;;5033028;28;20250;-44
2023/08/10 14:19:27;;;;;;;3.05;2.15;;;;;;;;;;5030049;28;20216;-45
2023/08/10 14:21:55;;;;;;;4.63;1.92;;;;;;;;;;5026545;28;20221;-44
2023/08/10 14:24:22;;;;;;;2.58;2.00;;;;;;;;;;5027658;28;20217;-44
2023/08/10 14:26:49;;;;;;;4.45;2.20;;;;;;;;;;5024373;28;20230;-44
2023/08/10 14:29:16;;;;;;;2.72;2.35;;;;;;;;;;5032876;28;20236;-46
2023/08/10 14:31:43;;;;;;;6.45;2.55;;;;;;;;;;5032690;28;20275;-44
2023/08/10 14:34:12;;;;;;;3.80;2.60;;;;;;;;;;5032647;28;20244;-44
2023/08/10 14:36:39;;;;;;;2.85;2.20;;;;;;;;;;5031067;28;20263;-44
2023/08/10 14:39:06;;;;;;;3.85;2.45;;;;;;;;;;5031461;28;20224;-44
2023/08/10 14:41:34;;;;;;;2.53;1.70;;;;;;;;;;5031505;28;20233;-44
2023/08/10 14:44:01;;;;;;;4.72;2.30;;;;;;;;;;5031004;28;20216;-45
2023/08/10 14:46:28;;;;;;;3.28;2.00;;;;;;;;;;5024196;28;20221;-44